Columbia Falls, MT

8:15 AM MST on February 14, 2016 (GMT -0700)
Tamarack Lane | | Change Station
CLOSE
Current Station
Personal Weather Station
Location: Columbia Falls, Mt
Elevation: 3133 ft
Nearby Weather Stations

Elev 3133 ft 48.38 °N, 114.19 °W | Updated 5 minutes ago

Overcast
Overcast
33.5 °F
Feels Like 34 °F
N
0.0
Wind Variable Wind from West
Gusts 0.0 mph

Today
High -- | Low -- °F
--% Chance of Precip.
Yesterday
High -- | Low -- °F
Precip. -- in
Pressure 29.81 in
Visibility 10.0 miles
Clouds Scattered Clouds 7500 ft
Mostly Cloudy 9000 ft
Windchill 34 °F
Dew Point 32 °F
Humidity 93%
Rainfall 0.04 in
Snow Depth Not available.
7:46 AM 5:56 PM
Waxing Crescent, 42% visible
METAR KCTB 141456Z AUTO 26017KT 10SM SCT075 BKN090 01/M05 A2975 RMK AO2 PK WND 27026/1417 SLP095 T00061050 55001 TSNO
Pressure 29.81 in
Visibility 10.0 miles
Clouds Scattered Clouds 7500 ft
Mostly Cloudy 9000 ft
Windchill 34 °F
Dew Point 32 °F
Humidity 93%
Rainfall 0.04 in
Snow Depth Not available.
7:46 AM 5:56 PM
Waxing Crescent, 42% visible
METAR KCTB 141456Z AUTO 26017KT 10SM SCT075 BKN090 01/M05 A2975 RMK AO2 PK WND 27026/1417 SLP095 T00061050 55001 TSNO

10-Day Weather Forecast

Almanac

Astronomy

Feb. 14, 2016 Rise Set
Actual Time
Civil Twilight
Nautical Twilight
Astronomical Twilight
Moon
Length of Visible Light
Length of Day
Tomorrow will be .
, % of the Moon is Illuminated

Today's Extremes

State Highs State Lows

Community

WunderPhotos

Upload Photos

1,892,788 photos uploaded!

WunderBlog® & News

Nearby

Air Quality

  Air Quality AQ Index Pollutant
Not available.

Snow Depth

Station Depth Elevation

Earthquake Activity

City Distance Mag. Time & Date
Minimum magnitude displayed is 2.5.

Coastal Water Temperatures

Place Temperature

Stations

Nearby Weather Stations

Station Location Temp. Windchill Dew Point Humidity Wind Precip. Elev Updated Type
                   

Watches & Warnings

There are currently no watches in effect.